sensor_id;sensor_type;location;lat;lon;timestamp;P1;durP1;ratioP1;P2;durP2;ratioP2
20635;SDS011;10477;43.198;27.916;2022-09-20T00:01:31;33.40;;;30.80;;
20635;SDS011;10477;43.198;27.916;2022-09-20T00:03:57;33.17;;;30.47;;
20635;SDS011;10477;43.198;27.916;2022-09-20T00:06:28;33.20;;;30.40;;
20635;SDS011;10477;43.198;27.916;2022-09-20T00:08:57;32.73;;;30.13;;
20635;SDS011;10477;43.198;27.916;2022-09-20T00:11:27;32.90;;;30.30;;
20635;SDS011;10477;43.198;27.916;2022-09-20T00:13:57;31.37;;;28.87;;
20635;SDS011;10477;43.198;27.916;2022-09-20T00:16:34;33.23;;;30.53;;
20635;SDS011;10477;43.198;27.916;2022-09-20T00:18:58;34.17;;;31.37;;
20635;SDS011;10477;43.198;27.916;2022-09-20T00:21:30;36.45;;;33.55;;
20635;SDS011;10477;43.198;27.916;2022-09-20T00:23:59;35.50;;;32.70;;
20635;SDS011;10477;43.198;27.916;2022-09-20T00:26:27;34.80;;;32.00;;
20635;SDS011;10477;43.198;27.916;2022-09-20T00:28:56;35.00;;;32.20;;
20635;SDS011;10477;43.198;27.916;2022-09-20T00:31:24;34.70;;;32.00;;
20635;SDS011;10477;43.198;27.916;2022-09-20T00:33:56;33.07;;;30.37;;
20635;SDS011;10477;43.198;27.916;2022-09-20T00:36:44;34.37;;;31.47;;
20635;SDS011;10477;43.198;27.916;2022-09-20T00:39:12;33.70;;;31.00;;
20635;SDS011;10477;43.198;27.916;2022-09-20T00:41:42;34.60;;;31.50;;
20635;SDS011;10477;43.198;27.916;2022-09-20T00:47:54;35.30;;;32.50;;
20635;SDS011;10477;43.198;27.916;2022-09-20T00:49:43;32.87;;;30.27;;
20635;SDS011;10477;43.198;27.916;2022-09-20T00:52:13;34.23;;;31.43;;
20635;SDS011;10477;43.198;27.916;2022-09-20T00:54:42;34.10;;;31.40;;
20635;SDS011;10477;43.198;27.916;2022-09-20T00:57:11;37.90;;;35.10;;
20635;SDS011;10477;43.198;27.916;2022-09-20T00:59:39;35.93;;;33.13;;
20635;SDS011;10477;43.198;27.916;2022-09-20T01:02:17;35.60;;;32.80;;
20635;SDS011;10477;43.198;27.916;2022-09-20T01:04:42;35.73;;;32.97;;
20635;SDS011;10477;43.198;27.916;2022-09-20T01:07:12;34.90;;;32.20;;
20635;SDS011;10477;43.198;27.916;2022-09-20T01:09:42;35.40;;;32.70;;
20635;SDS011;10477;43.198;27.916;2022-09-20T01:12:12;35.50;;;32.70;;
20635;SDS011;10477;43.198;27.916;2022-09-20T01:14:40;36.70;;;33.80;;
20635;SDS011;10477;43.198;27.916;2022-09-20T01:17:11;36.83;;;33.93;;
20635;SDS011;10477;43.198;27.916;2022-09-20T01:22:14;34.67;;;31.87;;
20635;SDS011;10477;43.198;27.916;2022-09-20T01:24:49;33.93;;;31.13;;
20635;SDS011;10477;43.198;27.916;2022-09-20T01:32:29;34.03;;;31.17;;
20635;SDS011;10477;43.198;27.916;2022-09-20T01:35:00;34.67;;;31.87;;
20635;SDS011;10477;43.198;27.916;2022-09-20T01:37:35;36.58;;;33.67;;
20635;SDS011;10477;43.198;27.916;2022-09-20T01:40:23;33.37;;;30.50;;
20635;SDS011;10477;43.198;27.916;2022-09-20T01:45:47;34.20;;;31.20;;
20635;SDS011;10477;43.198;27.916;2022-09-20T01:48:22;32.53;;;29.73;;
20635;SDS011;10477;43.198;27.916;2022-09-20T01:51:15;32.73;;;29.87;;
20635;SDS011;10477;43.198;27.916;2022-09-20T02:01:55;32.33;;;29.57;;
20635;SDS011;10477;43.198;27.916;2022-09-20T02:04:31;34.20;;;31.30;;
20635;SDS011;10477;43.198;27.916;2022-09-20T02:07:06;33.07;;;30.27;;
20635;SDS011;10477;43.198;27.916;2022-09-20T02:12:52;32.30;;;29.50;;
20635;SDS011;10477;43.198;27.916;2022-09-20T02:15:32;33.23;;;30.43;;
20635;SDS011;10477;43.198;27.916;2022-09-20T02:23:30;31.87;;;29.17;;
20635;SDS011;10477;43.198;27.916;2022-09-20T02:26:23;33.30;;;30.60;;
20635;SDS011;10477;43.198;27.916;2022-09-20T02:34:36;33.27;;;30.47;;
20635;SDS011;10477;43.198;27.916;2022-09-20T02:45:27;33.97;;;31.07;;
20635;SDS011;10477;43.198;27.916;2022-09-20T02:47:59;35.13;;;32.13;;
20635;SDS011;10477;43.198;27.916;2022-09-20T02:50:40;34.73;;;31.83;;
20635;SDS011;10477;43.198;27.916;2022-09-20T02:58:54;35.33;;;32.30;;
20635;SDS011;10477;43.198;27.916;2022-09-20T03:12:51;36.37;;;33.37;;
20635;SDS011;10477;43.198;27.916;2022-09-20T03:15:29;34.97;;;31.97;;
20635;SDS011;10477;43.198;27.916;2022-09-20T03:18:07;36.97;;;33.77;;
20635;SDS011;10477;43.198;27.916;2022-09-20T03:26:15;37.90;;;34.90;;
20635;SDS011;10477;43.198;27.916;2022-09-20T03:28:54;38.17;;;34.97;;
20635;SDS011;10477;43.198;27.916;2022-09-20T03:34:13;35.27;;;32.27;;
20635;SDS011;10477;43.198;27.916;2022-09-20T03:47:29;39.50;;;36.27;;
20635;SDS011;10477;43.198;27.916;2022-09-20T04:04:37;36.60;;;33.50;;
20635;SDS011;10477;43.198;27.916;2022-09-20T04:07:20;36.27;;;33.27;;
20635;SDS011;10477;43.198;27.916;2022-09-20T04:10:23;39.10;;;35.90;;
20635;SDS011;10477;43.198;27.916;2022-09-20T04:21:42;39.50;;;36.30;;
20635;SDS011;10477;43.198;27.916;2022-09-20T04:24:18;38.93;;;35.77;;
20635;SDS011;10477;43.198;27.916;2022-09-20T04:26:49;40.43;;;37.20;;
20635;SDS011;10477;43.198;27.916;2022-09-20T04:37:30;42.50;;;39.10;;
20635;SDS011;10477;43.198;27.916;2022-09-20T04:59:53;39.07;;;35.67;;
20635;SDS011;10477;43.198;27.916;2022-09-20T05:03:11;45.03;;;41.20;;
20635;SDS011;10477;43.198;27.916;2022-09-20T05:16:35;40.43;;;37.23;;
20635;SDS011;10477;43.198;27.916;2022-09-20T05:22:07;47.60;;;43.87;;
20635;SDS011;10477;43.198;27.916;2022-09-20T05:24:58;39.77;;;36.47;;
20635;SDS011;10477;43.198;27.916;2022-09-20T05:33:07;39.87;;;36.67;;
20635;SDS011;10477;43.198;27.916;2022-09-20T05:41:17;35.97;;;33.07;;
20635;SDS011;10477;43.198;27.916;2022-09-20T05:47:00;36.20;;;33.30;;
20635;SDS011;10477;43.198;27.916;2022-09-20T05:49:49;36.27;;;33.37;;
20635;SDS011;10477;43.198;27.916;2022-09-20T05:52:29;36.30;;;33.30;;
20635;SDS011;10477;43.198;27.916;2022-09-20T05:58:07;35.93;;;32.93;;
20635;SDS011;10477;43.198;27.916;2022-09-20T06:00:52;28.62;;;26.40;;
20635;SDS011;10477;43.198;27.916;2022-09-20T06:03:45;37.00;;;34.20;;
20635;SDS011;10477;43.198;27.916;2022-09-20T06:06:29;33.63;;;30.93;;
20635;SDS011;10477;43.198;27.916;2022-09-20T06:12:02;34.93;;;32.13;;
20635;SDS011;10477;43.198;27.916;2022-09-20T06:14:42;33.77;;;30.70;;
20635;SDS011;10477;43.198;27.916;2022-09-20T06:22:58;33.63;;;30.83;;
20635;SDS011;10477;43.198;27.916;2022-09-20T06:25:33;36.47;;;33.67;;
20635;SDS011;10477;43.198;27.916;2022-09-20T06:30:49;32.37;;;29.80;;
20635;SDS011;10477;43.198;27.916;2022-09-20T06:35:55;35.70;;;33.10;;
20635;SDS011;10477;43.198;27.916;2022-09-20T06:41:39;31.93;;;28.67;;
20635;SDS011;10477;43.198;27.916;2022-09-20T06:44:09;34.17;;;31.67;;
20635;SDS011;10477;43.198;27.916;2022-09-20T06:46:37;32.83;;;30.13;;
20635;SDS011;10477;43.198;27.916;2022-09-20T06:49:07;32.50;;;30.00;;
20635;SDS011;10477;43.198;27.916;2022-09-20T06:51:36;39.83;;;36.83;;
20635;SDS011;10477;43.198;27.916;2022-09-20T06:54:05;32.03;;;29.53;;
20635;SDS011;10477;43.198;27.916;2022-09-20T06:56:35;31.97;;;29.57;;
20635;SDS011;10477;43.198;27.916;2022-09-20T06:59:03;35.60;;;33.00;;
20635;SDS011;10477;43.198;27.916;2022-09-20T07:01:36;33.33;;;30.73;;
20635;SDS011;10477;43.198;27.916;2022-09-20T07:04:04;36.57;;;33.93;;
20635;SDS011;10477;43.198;27.916;2022-09-20T07:06:34;35.85;;;33.23;;
20635;SDS011;10477;43.198;27.916;2022-09-20T07:09:02;30.90;;;28.60;;
20635;SDS011;10477;43.198;27.916;2022-09-20T07:11:30;32.53;;;29.93;;
20635;SDS011;10477;43.198;27.916;2022-09-20T07:14:00;30.97;;;28.67;;
20635;SDS011;10477;43.198;27.916;2022-09-20T07:16:28;29.77;;;27.57;;
20635;SDS011;10477;43.198;27.916;2022-09-20T07:18:57;30.23;;;28.03;;
20635;SDS011;10477;43.198;27.916;2022-09-20T07:21:25;29.53;;;27.43;;
20635;SDS011;10477;43.198;27.916;2022-09-20T07:23:55;29.03;;;26.93;;
20635;SDS011;10477;43.198;27.916;2022-09-20T07:26:24;31.93;;;29.73;;
20635;SDS011;10477;43.198;27.916;2022-09-20T07:28:54;28.27;;;26.27;;
20635;SDS011;10477;43.198;27.916;2022-09-20T07:31:24;28.95;;;26.95;;
20635;SDS011;10477;43.198;27.916;2022-09-20T07:33:53;27.77;;;25.77;;
20635;SDS011;10477;43.198;27.916;2022-09-20T07:36:20;25.77;;;23.97;;
20635;SDS011;10477;43.198;27.916;2022-09-20T07:38:49;25.07;;;23.07;;
20635;SDS011;10477;43.198;27.916;2022-09-20T07:41:18;25.20;;;23.10;;
20635;SDS011;10477;43.198;27.916;2022-09-20T07:43:47;26.13;;;24.33;;
20635;SDS011;10477;43.198;27.916;2022-09-20T07:46:15;25.97;;;24.07;;
20635;SDS011;10477;43.198;27.916;2022-09-20T07:48:46;25.17;;;23.47;;
20635;SDS011;10477;43.198;27.916;2022-09-20T07:51:14;25.40;;;23.67;;
20635;SDS011;10477;43.198;27.916;2022-09-20T07:53:42;26.43;;;24.60;;
20635;SDS011;10477;43.198;27.916;2022-09-20T07:56:13;26.80;;;24.90;;
20635;SDS011;10477;43.198;27.916;2022-09-20T07:58:43;24.20;;;22.50;;
20635;SDS011;10477;43.198;27.916;2022-09-20T08:01:12;24.20;;;22.20;;
20635;SDS011;10477;43.198;27.916;2022-09-20T08:03:39;23.27;;;21.57;;
20635;SDS011;10477;43.198;27.916;2022-09-20T08:06:08;24.33;;;22.63;;
20635;SDS011;10477;43.198;27.916;2022-09-20T08:08:39;24.00;;;22.40;;
20635;SDS011;10477;43.198;27.916;2022-09-20T08:11:10;23.33;;;21.63;;
20635;SDS011;10477;43.198;27.916;2022-09-20T08:13:49;24.73;;;23.03;;
20635;SDS011;10477;43.198;27.916;2022-09-20T08:16:14;24.80;;;22.77;;
20635;SDS011;10477;43.198;27.916;2022-09-20T08:18:45;29.67;;;27.17;;
20635;SDS011;10477;43.198;27.916;2022-09-20T08:21:15;24.32;;;22.62;;
20635;SDS011;10477;43.198;27.916;2022-09-20T08:23:45;24.43;;;22.73;;
20635;SDS011;10477;43.198;27.916;2022-09-20T08:26:14;23.67;;;22.07;;
20635;SDS011;10477;43.198;27.916;2022-09-20T08:28:45;22.43;;;20.83;;
20635;SDS011;10477;43.198;27.916;2022-09-20T08:31:16;23.93;;;22.23;;
20635;SDS011;10477;43.198;27.916;2022-09-20T08:33:45;22.70;;;21.00;;
20635;SDS011;10477;43.198;27.916;2022-09-20T08:36:15;24.00;;;22.27;;
20635;SDS011;10477;43.198;27.916;2022-09-20T08:38:45;24.50;;;22.80;;
20635;SDS011;10477;43.198;27.916;2022-09-20T08:41:24;25.70;;;23.67;;
20635;SDS011;10477;43.198;27.916;2022-09-20T08:43:54;23.70;;;21.70;;
20635;SDS011;10477;43.198;27.916;2022-09-20T08:46:36;24.40;;;21.80;;
20635;SDS011;10477;43.198;27.916;2022-09-20T08:49:04;25.17;;;23.37;;
20635;SDS011;10477;43.198;27.916;2022-09-20T08:51:33;23.07;;;21.40;;
20635;SDS011;10477;43.198;27.916;2022-09-20T08:54:04;25.17;;;23.47;;
20635;SDS011;10477;43.198;27.916;2022-09-20T08:56:35;21.23;;;19.73;;
20635;SDS011;10477;43.198;27.916;2022-09-20T09:01:50;24.80;;;23.10;;
20635;SDS011;10477;43.198;27.916;2022-09-20T09:04:20;24.17;;;22.57;;
20635;SDS011;10477;43.198;27.916;2022-09-20T09:06:50;21.87;;;20.37;;
20635;SDS011;10477;43.198;27.916;2022-09-20T09:09:25;21.73;;;20.25;;
20635;SDS011;10477;43.198;27.916;2022-09-20T09:11:54;21.62;;;20.10;;
20635;SDS011;10477;43.198;27.916;2022-09-20T09:17:13;21.30;;;19.80;;
20635;SDS011;10477;43.198;27.916;2022-09-20T09:19:47;22.97;;;21.03;;
20635;SDS011;10477;43.198;27.916;2022-09-20T09:22:17;20.87;;;19.27;;
20635;SDS011;10477;43.198;27.916;2022-09-20T09:30:24;19.80;;;18.40;;
20635;SDS011;10477;43.198;27.916;2022-09-20T09:35:52;21.23;;;19.73;;
20635;SDS011;10477;43.198;27.916;2022-09-20T09:38:25;21.80;;;20.23;;
20635;SDS011;10477;43.198;27.916;2022-09-20T09:41:00;21.07;;;19.30;;
20635;SDS011;10477;43.198;27.916;2022-09-20T09:43:29;20.37;;;18.87;;
20635;SDS011;10477;43.198;27.916;2022-09-20T09:46:19;23.83;;;22.03;;
20635;SDS011;10477;43.198;27.916;2022-09-20T09:52:27;20.30;;;18.87;;
20635;SDS011;10477;43.198;27.916;2022-09-20T09:54:35;23.33;;;21.40;;
20635;SDS011;10477;43.198;27.916;2022-09-20T10:03:03;23.23;;;21.63;;
20635;SDS011;10477;43.198;27.916;2022-09-20T10:08:20;20.40;;;19.00;;
20635;SDS011;10477;43.198;27.916;2022-09-20T10:10:57;20.87;;;19.40;;
20635;SDS011;10477;43.198;27.916;2022-09-20T10:13:40;20.43;;;18.93;;
20635;SDS011;10477;43.198;27.916;2022-09-20T10:16:12;20.83;;;19.43;;
20635;SDS011;10477;43.198;27.916;2022-09-20T10:18:53;24.47;;;22.87;;
20635;SDS011;10477;43.198;27.916;2022-09-20T10:21:26;21.47;;;19.97;;
20635;SDS011;10477;43.198;27.916;2022-09-20T10:26:27;24.43;;;22.73;;
20635;SDS011;10477;43.198;27.916;2022-09-20T10:29:15;24.73;;;23.13;;
20635;SDS011;10477;43.198;27.916;2022-09-20T10:32:45;21.40;;;19.70;;
20635;SDS011;10477;43.198;27.916;2022-09-20T10:37:22;19.77;;;18.40;;
20635;SDS011;10477;43.198;27.916;2022-09-20T10:40:08;20.80;;;19.40;;
20635;SDS011;10477;43.198;27.916;2022-09-20T10:42:46;19.93;;;18.53;;
20635;SDS011;10477;43.198;27.916;2022-09-20T10:45:41;20.37;;;18.93;;
20635;SDS011;10477;43.198;27.916;2022-09-20T10:59:06;21.77;;;20.27;;
20635;SDS011;10477;43.198;27.916;2022-09-20T11:04:43;21.10;;;19.70;;
20635;SDS011;10477;43.198;27.916;2022-09-20T11:07:24;22.45;;;16.85;;
20635;SDS011;10477;43.198;27.916;2022-09-20T11:10:19;19.20;;;17.90;;
20635;SDS011;10477;43.198;27.916;2022-09-20T11:12:50;21.07;;;19.60;;
20635;SDS011;10477;43.198;27.916;2022-09-20T11:15:26;35.87;;;17.50;;
20635;SDS011;10477;43.198;27.916;2022-09-20T11:18:14;20.60;;;19.20;;
20635;SDS011;10477;43.198;27.916;2022-09-20T11:20:59;20.00;;;18.70;;
20635;SDS011;10477;43.198;27.916;2022-09-20T11:26:26;21.25;;;19.75;;
20635;SDS011;10477;43.198;27.916;2022-09-20T11:29:02;20.02;;;18.62;;
20635;SDS011;10477;43.198;27.916;2022-09-20T11:31:41;14.73;;;13.73;;
20635;SDS011;10477;43.198;27.916;2022-09-20T11:34:19;24.20;;;22.70;;
20635;SDS011;10477;43.198;27.916;2022-09-20T11:36:45;21.20;;;19.75;;
20635;SDS011;10477;43.198;27.916;2022-09-20T11:39:36;21.50;;;19.70;;
20635;SDS011;10477;43.198;27.916;2022-09-20T11:42:29;21.50;;;20.00;;
20635;SDS011;10477;43.198;27.916;2022-09-20T11:44:59;25.93;;;24.23;;
20635;SDS011;10477;43.198;27.916;2022-09-20T11:47:34;21.37;;;19.93;;
20635;SDS011;10477;43.198;27.916;2022-09-20T11:56:24;19.57;;;18.27;;
20635;SDS011;10477;43.198;27.916;2022-09-20T11:59:04;20.53;;;19.13;;
20635;SDS011;10477;43.198;27.916;2022-09-20T12:01:30;19.63;;;18.33;;
20635;SDS011;10477;43.198;27.916;2022-09-20T12:04:23;19.43;;;18.13;;
20635;SDS011;10477;43.198;27.916;2022-09-20T12:06:33;20.50;;;19.13;;
20635;SDS011;10477;43.198;27.916;2022-09-20T12:09:03;19.93;;;18.53;;
20635;SDS011;10477;43.198;27.916;2022-09-20T12:11:34;19.60;;;18.20;;
20635;SDS011;10477;43.198;27.916;2022-09-20T12:14:06;21.23;;;19.80;;
20635;SDS011;10477;43.198;27.916;2022-09-20T12:19:13;17.55;;;15.55;;
20635;SDS011;10477;43.198;27.916;2022-09-20T12:24:32;14.87;;;13.83;;
20635;SDS011;10477;43.198;27.916;2022-09-20T12:32:45;23.45;;;19.15;;
20635;SDS011;10477;43.198;27.916;2022-09-20T12:41:01;21.35;;;19.87;;
20635;SDS011;10477;43.198;27.916;2022-09-20T12:43:51;24.57;;;20.07;;
20635;SDS011;10477;43.198;27.916;2022-09-20T12:46:21;20.63;;;19.23;;
20635;SDS011;10477;43.198;27.916;2022-09-20T12:49:11;21.30;;;19.25;;
20635;SDS011;10477;43.198;27.916;2022-09-20T12:51:41;22.00;;;19.50;;
20635;SDS011;10477;43.198;27.916;2022-09-20T12:54:28;20.70;;;19.20;;
20635;SDS011;10477;43.198;27.916;2022-09-20T12:57:14;22.20;;;19.80;;
20635;SDS011;10477;43.198;27.916;2022-09-20T12:59:27;20.50;;;19.10;;
20635;SDS011;10477;43.198;27.916;2022-09-20T13:01:56;21.00;;;19.57;;
20635;SDS011;10477;43.198;27.916;2022-09-20T13:08:00;20.70;;;19.20;;
20635;SDS011;10477;43.198;27.916;2022-09-20T13:09:59;21.67;;;19.60;;
20635;SDS011;10477;43.198;27.916;2022-09-20T13:12:28;20.80;;;19.30;;
20635;SDS011;10477;43.198;27.916;2022-09-20T13:14:57;23.73;;;21.57;;
20635;SDS011;10477;43.198;27.916;2022-09-20T13:17:26;22.03;;;19.97;;
20635;SDS011;10477;43.198;27.916;2022-09-20T13:19:56;21.60;;;19.43;;
20635;SDS011;10477;43.198;27.916;2022-09-20T13:22:25;21.25;;;19.52;;
20635;SDS011;10477;43.198;27.916;2022-09-20T13:24:58;20.10;;;18.70;;
20635;SDS011;10477;43.198;27.916;2022-09-20T13:27:34;20.52;;;19.10;;
20635;SDS011;10477;43.198;27.916;2022-09-20T13:30:08;20.70;;;19.20;;
20635;SDS011;10477;43.198;27.916;2022-09-20T13:32:47;20.60;;;19.10;;
20635;SDS011;10477;43.198;27.916;2022-09-20T13:40:18;21.40;;;19.90;;
20635;SDS011;10477;43.198;27.916;2022-09-20T13:42:48;21.00;;;19.60;;
20635;SDS011;10477;43.198;27.916;2022-09-20T13:45:18;20.67;;;19.17;;
20635;SDS011;10477;43.198;27.916;2022-09-20T13:47:48;21.77;;;19.87;;
20635;SDS011;10477;43.198;27.916;2022-09-20T13:50:21;21.73;;;19.45;;
20635;SDS011;10477;43.198;27.916;2022-09-20T13:52:59;20.47;;;18.97;;
20635;SDS011;10477;43.198;27.916;2022-09-20T13:55:32;21.50;;;19.80;;
20635;SDS011;10477;43.198;27.916;2022-09-20T13:58:06;19.57;;;18.13;;
20635;SDS011;10477;43.198;27.916;2022-09-20T14:00:35;21.80;;;20.30;;
20635;SDS011;10477;43.198;27.916;2022-09-20T14:03:11;20.10;;;18.40;;
20635;SDS011;10477;43.198;27.916;2022-09-20T14:05:37;19.00;;;17.70;;
20635;SDS011;10477;43.198;27.916;2022-09-20T14:08:10;19.50;;;18.20;;
20635;SDS011;10477;43.198;27.916;2022-09-20T14:10:38;16.95;;;15.80;;
20635;SDS011;10477;43.198;27.916;2022-09-20T14:13:11;19.62;;;18.23;;
20635;SDS011;10477;43.198;27.916;2022-09-20T14:15:44;18.97;;;17.67;;
20635;SDS011;10477;43.198;27.916;2022-09-20T14:18:19;19.37;;;18.03;;
20635;SDS011;10477;43.198;27.916;2022-09-20T14:20:48;19.70;;;18.30;;
20635;SDS011;10477;43.198;27.916;2022-09-20T14:23:19;19.32;;;17.98;;
20635;SDS011;10477;43.198;27.916;2022-09-20T14:26:07;21.20;;;18.80;;
20635;SDS011;10477;43.198;27.916;2022-09-20T14:28:42;20.20;;;18.80;;
20635;SDS011;10477;43.198;27.916;2022-09-20T14:33:54;19.10;;;17.60;;
20635;SDS011;10477;43.198;27.916;2022-09-20T14:36:25;18.83;;;17.43;;
20635;SDS011;10477;43.198;27.916;2022-09-20T14:39:00;19.73;;;17.92;;
20635;SDS011;10477;43.198;27.916;2022-09-20T14:41:39;15.80;;;14.65;;
20635;SDS011;10477;43.198;27.916;2022-09-20T14:44:05;23.30;;;19.37;;
20635;SDS011;10477;43.198;27.916;2022-09-20T14:46:35;21.10;;;19.60;;
20635;SDS011;10477;43.198;27.916;2022-09-20T14:51:51;18.73;;;17.43;;
20635;SDS011;10477;43.198;27.916;2022-09-20T14:54:28;18.60;;;17.30;;
20635;SDS011;10477;43.198;27.916;2022-09-20T14:56:57;18.90;;;17.60;;
20635;SDS011;10477;43.198;27.916;2022-09-20T14:59:27;18.87;;;17.57;;
20635;SDS011;10477;43.198;27.916;2022-09-20T15:04:40;19.33;;;17.93;;
20635;SDS011;10477;43.198;27.916;2022-09-20T15:07:11;18.70;;;17.40;;
20635;SDS011;10477;43.198;27.916;2022-09-20T15:09:38;19.50;;;18.20;;
20635;SDS011;10477;43.198;27.916;2022-09-20T15:12:11;20.87;;;19.47;;
20635;SDS011;10477;43.198;27.916;2022-09-20T15:14:40;19.20;;;17.80;;
20635;SDS011;10477;43.198;27.916;2022-09-20T15:17:09;20.50;;;19.10;;
20635;SDS011;10477;43.198;27.916;2022-09-20T15:19:38;19.00;;;17.70;;
20635;SDS011;10477;43.198;27.916;2022-09-20T15:22:07;19.17;;;17.87;;
20635;SDS011;10477;43.198;27.916;2022-09-20T15:24:38;19.43;;;18.03;;
20635;SDS011;10477;43.198;27.916;2022-09-20T15:27:08;19.87;;;18.47;;
20635;SDS011;10477;43.198;27.916;2022-09-20T15:29:39;19.00;;;17.70;;
20635;SDS011;10477;43.198;27.916;2022-09-20T15:32:09;19.10;;;17.70;;
20635;SDS011;10477;43.198;27.916;2022-09-20T15:34:36;20.37;;;18.90;;
20635;SDS011;10477;43.198;27.916;2022-09-20T15:37:04;19.10;;;17.70;;
20635;SDS011;10477;43.198;27.916;2022-09-20T15:39:32;19.30;;;17.90;;
20635;SDS011;10477;43.198;27.916;2022-09-20T15:42:00;19.20;;;17.50;;
20635;SDS011;10477;43.198;27.916;2022-09-20T15:44:27;17.15;;;15.90;;
20635;SDS011;10477;43.198;27.916;2022-09-20T15:46:56;18.50;;;17.20;;
20635;SDS011;10477;43.198;27.916;2022-09-20T15:49:24;18.60;;;17.30;;
20635;SDS011;10477;43.198;27.916;2022-09-20T15:51:51;20.70;;;19.20;;
20635;SDS011;10477;43.198;27.916;2022-09-20T15:54:19;18.30;;;17.00;;
20635;SDS011;10477;43.198;27.916;2022-09-20T15:56:47;18.87;;;17.50;;
20635;SDS011;10477;43.198;27.916;2022-09-20T15:59:17;19.03;;;17.73;;
20635;SDS011;10477;43.198;27.916;2022-09-20T16:01:46;19.00;;;17.70;;
20635;SDS011;10477;43.198;27.916;2022-09-20T16:04:14;19.00;;;17.70;;
20635;SDS011;10477;43.198;27.916;2022-09-20T16:06:47;18.93;;;17.63;;
20635;SDS011;10477;43.198;27.916;2022-09-20T16:09:15;19.10;;;17.80;;
20635;SDS011;10477;43.198;27.916;2022-09-20T16:11:44;19.70;;;18.30;;
20635;SDS011;10477;43.198;27.916;2022-09-20T16:14:12;19.40;;;18.00;;
20635;SDS011;10477;43.198;27.916;2022-09-20T16:16:40;19.23;;;17.83;;
20635;SDS011;10477;43.198;27.916;2022-09-20T16:19:08;19.60;;;18.00;;
20635;SDS011;10477;43.198;27.916;2022-09-20T16:21:49;19.90;;;18.50;;
20635;SDS011;10477;43.198;27.916;2022-09-20T16:24:15;19.73;;;18.33;;
20635;SDS011;10477;43.198;27.916;2022-09-20T16:26:43;19.33;;;17.93;;
20635;SDS011;10477;43.198;27.916;2022-09-20T16:29:11;19.60;;;18.20;;
20635;SDS011;10477;43.198;27.916;2022-09-20T16:31:41;18.93;;;17.60;;
20635;SDS011;10477;43.198;27.916;2022-09-20T16:34:18;19.07;;;17.77;;
20635;SDS011;10477;43.198;27.916;2022-09-20T16:36:49;19.97;;;18.23;;
20635;SDS011;10477;43.198;27.916;2022-09-20T16:39:25;19.50;;;18.10;;
20635;SDS011;10477;43.198;27.916;2022-09-20T16:41:54;19.00;;;17.70;;
20635;SDS011;10477;43.198;27.916;2022-09-20T16:44:28;19.70;;;18.30;;
20635;SDS011;10477;43.198;27.916;2022-09-20T16:47:00;19.60;;;18.20;;
20635;SDS011;10477;43.198;27.916;2022-09-20T16:49:29;19.90;;;18.50;;
20635;SDS011;10477;43.198;27.916;2022-09-20T16:51:57;19.47;;;18.07;;
20635;SDS011;10477;43.198;27.916;2022-09-20T16:54:25;19.50;;;18.10;;
20635;SDS011;10477;43.198;27.916;2022-09-20T16:56:52;19.80;;;18.40;;
20635;SDS011;10477;43.198;27.916;2022-09-20T16:59:22;19.60;;;18.20;;
20635;SDS011;10477;43.198;27.916;2022-09-20T17:01:51;19.70;;;18.30;;
20635;SDS011;10477;43.198;27.916;2022-09-20T17:04:19;19.70;;;18.30;;
20635;SDS011;10477;43.198;27.916;2022-09-20T17:06:48;19.23;;;17.83;;
20635;SDS011;10477;43.198;27.916;2022-09-20T17:09:16;19.07;;;17.77;;
20635;SDS011;10477;43.198;27.916;2022-09-20T17:11:46;19.80;;;18.40;;
20635;SDS011;10477;43.198;27.916;2022-09-20T17:14:16;20.53;;;19.03;;
20635;SDS011;10477;43.198;27.916;2022-09-20T17:16:46;19.80;;;18.40;;
20635;SDS011;10477;43.198;27.916;2022-09-20T17:19:15;18.37;;;17.02;;
20635;SDS011;10477;43.198;27.916;2022-09-20T17:21:46;19.80;;;18.40;;
20635;SDS011;10477;43.198;27.916;2022-09-20T17:24:15;19.60;;;18.20;;
20635;SDS011;10477;43.198;27.916;2022-09-20T17:26:44;19.63;;;18.23;;
20635;SDS011;10477;43.198;27.916;2022-09-20T17:29:13;19.67;;;18.27;;
20635;SDS011;10477;43.198;27.916;2022-09-20T17:31:46;19.37;;;17.97;;
20635;SDS011;10477;43.198;27.916;2022-09-20T17:34:17;19.90;;;18.50;;
20635;SDS011;10477;43.198;27.916;2022-09-20T17:36:46;20.93;;;19.43;;
20635;SDS011;10477;43.198;27.916;2022-09-20T17:39:15;19.60;;;15.40;;
20635;SDS011;10477;43.198;27.916;2022-09-20T17:41:44;17.20;;;15.95;;
20635;SDS011;10477;43.198;27.916;2022-09-20T17:44:13;20.60;;;19.20;;
20635;SDS011;10477;43.198;27.916;2022-09-20T17:46:43;20.67;;;19.27;;
20635;SDS011;10477;43.198;27.916;2022-09-20T17:49:16;20.60;;;19.10;;
20635;SDS011;10477;43.198;27.916;2022-09-20T17:51:48;28.07;;;25.93;;
20635;SDS011;10477;43.198;27.916;2022-09-20T17:54:17;21.20;;;19.70;;
20635;SDS011;10477;43.198;27.916;2022-09-20T17:56:47;20.50;;;19.10;;
20635;SDS011;10477;43.198;27.916;2022-09-20T17:59:16;20.00;;;18.60;;
20635;SDS011;10477;43.198;27.916;2022-09-20T18:01:46;19.63;;;18.23;;
20635;SDS011;10477;43.198;27.916;2022-09-20T18:04:16;21.43;;;19.93;;
20635;SDS011;10477;43.198;27.916;2022-09-20T18:06:46;20.50;;;19.10;;
20635;SDS011;10477;43.198;27.916;2022-09-20T18:09:17;20.47;;;19.07;;
20635;SDS011;10477;43.198;27.916;2022-09-20T18:11:47;19.77;;;18.37;;
20635;SDS011;10477;43.198;27.916;2022-09-20T18:14:18;20.43;;;19.03;;
20635;SDS011;10477;43.198;27.916;2022-09-20T18:16:53;20.00;;;18.60;;
20635;SDS011;10477;43.198;27.916;2022-09-20T18:19:25;20.63;;;18.90;;
20635;SDS011;10477;43.198;27.916;2022-09-20T18:22:04;19.47;;;18.07;;
20635;SDS011;10477;43.198;27.916;2022-09-20T18:24:29;19.23;;;17.83;;
20635;SDS011;10477;43.198;27.916;2022-09-20T18:26:57;19.80;;;18.40;;
20635;SDS011;10477;43.198;27.916;2022-09-20T18:29:25;19.80;;;18.40;;
20635;SDS011;10477;43.198;27.916;2022-09-20T18:31:53;19.57;;;18.17;;
20635;SDS011;10477;43.198;27.916;2022-09-20T18:34:25;19.83;;;18.43;;
20635;SDS011;10477;43.198;27.916;2022-09-20T18:36:58;19.33;;;18.03;;
20635;SDS011;10477;43.198;27.916;2022-09-20T18:39:29;19.20;;;17.90;;
20635;SDS011;10477;43.198;27.916;2022-09-20T18:41:59;19.90;;;18.50;;
20635;SDS011;10477;43.198;27.916;2022-09-20T18:44:28;20.60;;;19.17;;
20635;SDS011;10477;43.198;27.916;2022-09-20T18:47:00;21.90;;;20.30;;
20635;SDS011;10477;43.198;27.916;2022-09-20T18:49:29;24.60;;;22.90;;
20635;SDS011;10477;43.198;27.916;2022-09-20T18:51:58;26.73;;;24.83;;
20635;SDS011;10477;43.198;27.916;2022-09-20T18:54:26;27.27;;;25.27;;
20635;SDS011;10477;43.198;27.916;2022-09-20T18:56:58;27.93;;;25.93;;
20635;SDS011;10477;43.198;27.916;2022-09-20T18:59:26;27.87;;;25.87;;
20635;SDS011;10477;43.198;27.916;2022-09-20T19:09:59;25.90;;;24.10;;
20635;SDS011;10477;43.198;27.916;2022-09-20T19:18:20;25.50;;;23.70;;
20635;SDS011;10477;43.198;27.916;2022-09-20T19:21:20;24.93;;;23.20;;